Airfield :
LOGIN :

Register | Disclaimer

   EN    FR    IT 

 










Legend :    VFR   Marginal VFR   IFR   Intensive IFR   Very Intensive IFR
Visi :
Ceiling :
>= 8 km
>= 3000ft
5 to 8 km
1000 to 3000 ft
1500m to 5 km
500 to 1000 ft
800 to 1500m
200 to 500 ft
< 800m
< 200 ft
Symbols :   Thunderstorms  Fog  Heavy snow  Heavy precipitations  Wind > 20 kt
SIGMETs :     Misc.  Thunderstorms  Icing  Turbulence  Mountain Waves  Volcanic Ashes






- Airport Elevation : 464 ft
- IATA code : EVX


LFOE - Evreux

CURRENT METAR :
  • 210930Z AUTO 34008KT 300V020 9999 SCT026 22/17 Q1011 NOSIG

EXPIRED METARs :
  • 210900Z AUTO 32010KT 280V360 9999 SCT020 BKN029 21/17 Q1011 NOSIG
  • 210830Z AUTO 30010KT 9999 BKN016 BKN021 21/16 Q1011 NOSIG
  • 210800Z AUTO 30011KT 9999 OVC012 20/16 Q1010 BECMG BKN030
  • 210730Z AUTO 30010KT 9999 FEW007 SCT012 21/17 Q1010 TEMPO BKN008
  • 210700Z AUTO 29011KT 9999 BKN007 19/17 Q1010 NOSIG
  • 210630Z AUTO 30009KT 270V330 9999 FEW008 19/17 Q1009 TEMPO BKN008
  • 210600Z AUTO 30010KT 9999 FEW044 19/17 Q1009 TEMPO BKN008
  • 210530Z AUTO 29006KT CAVOK 19/17 Q1009 TEMPO BKN008
  • 210500Z AUTO 29004KT CAVOK 17/16 Q1008 TEMPO BKN008
  • 210430Z AUTO 30005KT CAVOK 17/16 Q1008 TEMPO BKN008

TAF TAF LFOE
Valid from the 21 at 09:00 until the 22 at 09:00 UTC


210800Z 2109/2209 33010KT 9999 BKN020
BECMG 2121/2123 26005KT



MET'MAP, your aeronautical weather chart ! - Copyright ORBIFLY December 2007 - Disclaimer

ORBIFLY MET'MAP TEAM :

Programming & Development : Alexandra Zaïnal
Original concept : Baudouin d'Aumeries
Technical & hardware support : Manuel Goepfert
Assistance : Marc-Olivier Méhu




SOURCES & CREDITS :

   NOAA